createdAt,value
2022-11-01T00:01:14.339Z,11.58
2022-11-01T00:03:44.677Z,11.59
2022-11-01T00:06:18.116Z,11.57
2022-11-01T00:08:49.823Z,11.55
2022-11-01T00:11:23.217Z,11.52
2022-11-01T00:13:52.730Z,11.46
2022-11-01T00:16:23.119Z,11.41
2022-11-01T00:18:52.115Z,11.39
2022-11-01T00:21:24.464Z,11.38
2022-11-01T00:23:53.738Z,11.37
2022-11-01T00:26:24.862Z,11.36
2022-11-01T00:28:54.918Z,11.35
2022-11-01T00:31:24.492Z,11.36
2022-11-01T00:33:53.234Z,11.37
2022-11-01T00:36:23.285Z,11.38
2022-11-01T00:38:52.660Z,11.39
2022-11-01T00:41:22.306Z,11.37
2022-11-01T00:43:51.172Z,11.39
2022-11-01T00:46:20.298Z,11.40
2022-11-01T00:48:49.201Z,11.38
2022-11-01T00:51:24.422Z,11.39
2022-11-01T00:53:53.213Z,11.37
2022-11-01T00:56:22.798Z,11.34
2022-11-01T00:58:53.281Z,11.31
2022-11-01T01:01:23.491Z,11.37
2022-11-01T01:03:52.573Z,11.39
2022-11-01T01:06:21.690Z,11.39
2022-11-01T01:08:54.556Z,11.39
2022-11-01T01:11:24.874Z,11.38
2022-11-01T01:13:54.198Z,11.36
2022-11-01T01:16:23.337Z,11.31
2022-11-01T01:18:52.844Z,11.28
2022-11-01T01:21:21.659Z,11.26
2022-11-01T01:23:52.174Z,11.27
2022-11-01T01:26:21.244Z,11.23
2022-11-01T01:28:55.133Z,11.23
2022-11-01T01:31:26.541Z,11.22
2022-11-01T01:33:55.676Z,11.21
2022-11-01T01:36:26.685Z,11.16
2022-11-01T01:38:57.131Z,11.23
2022-11-01T01:41:45.346Z,11.24
2022-11-01T01:45:02.815Z,11.28
2022-11-01T01:47:35.632Z,11.30
2022-11-01T01:50:09.522Z,11.32
2022-11-01T01:52:43.618Z,11.32
2022-11-01T01:55:20.372Z,11.32
2022-11-01T01:57:55.902Z,11.30
2022-11-01T02:00:26.726Z,11.31
2022-11-01T02:02:57.171Z,11.30
2022-11-01T02:05:32.176Z,11.30
2022-11-01T02:08:02.209Z,11.26
2022-11-01T02:10:33.455Z,11.24
2022-11-01T02:13:02.297Z,11.27
2022-11-01T02:15:38.858Z,11.23
2022-11-01T02:18:20.395Z,11.17
2022-11-01T02:21:37.290Z,11.18
2022-11-01T02:24:31.272Z,11.21
2022-11-01T02:27:15.343Z,11.21
2022-11-01T02:30:17.806Z,11.20
2022-11-01T02:32:54.859Z,11.20
2022-11-01T02:35:30.042Z,11.17
2022-11-01T02:38:08.251Z,11.18
2022-11-01T02:40:45.587Z,11.21
2022-11-01T02:43:20.018Z,11.22
2022-11-01T02:45:51.504Z,11.24
2022-11-01T02:48:25.192Z,11.23
2022-11-01T02:50:57.933Z,11.21
2022-11-01T02:53:26.738Z,11.23
2022-11-01T02:55:57.746Z,11.23
2022-11-01T02:58:29.718Z,11.27
2022-11-01T03:01:01.107Z,11.27
2022-11-01T03:03:33.855Z,11.31
2022-11-01T03:06:13.751Z,11.31
2022-11-01T03:08:44.598Z,11.32
2022-11-01T03:11:17.020Z,11.31
2022-11-01T03:14:02.117Z,11.31
2022-11-01T03:16:36.136Z,11.28
2022-11-01T03:19:27.728Z,11.30
2022-11-01T03:22:05.239Z,11.29
2022-11-01T03:24:38.959Z,11.29
2022-11-01T03:27:14.380Z,11.28
2022-11-01T03:29:49.504Z,11.25
2022-11-01T03:32:20.878Z,11.26
2022-11-01T03:34:51.222Z,11.22
2022-11-01T03:37:22.207Z,11.19
2022-11-01T03:39:54.068Z,11.17
2022-11-01T03:42:25.348Z,11.11
2022-11-01T03:45:00.368Z,11.10
2022-11-01T03:47:31.664Z,11.09
2022-11-01T03:50:16.667Z,11.10
2022-11-01T03:52:46.134Z,11.09
2022-11-01T03:55:19.726Z,11.06
2022-11-01T03:57:49.869Z,11.03
2022-11-01T04:00:21.884Z,11.08
2022-11-01T04:02:51.083Z,11.11
2022-11-01T04:05:24.096Z,11.11
2022-11-01T04:07:52.968Z,11.10
2022-11-01T04:10:23.167Z,11.10
2022-11-01T04:12:52.329Z,11.14
2022-11-01T04:15:39.257Z,11.15
2022-11-01T04:18:31.332Z,11.13
2022-11-01T04:21:02.793Z,11.12
2022-11-01T04:23:31.603Z,11.10
2022-11-01T04:26:04.020Z,11.12
2022-11-01T04:28:35.592Z,11.12
2022-11-01T04:31:04.156Z,11.13
2022-11-01T04:33:35.656Z,11.15
2022-11-01T04:36:10.527Z,11.13
2022-11-01T04:38:40.188Z,11.11
2022-11-01T04:41:13.584Z,11.08
2022-11-01T04:43:42.565Z,11.11
2022-11-01T04:46:13.146Z,11.13
2022-11-01T04:48:41.948Z,11.17
2022-11-01T04:51:12.903Z,11.18
2022-11-01T04:53:41.676Z,11.18
2022-11-01T04:56:11.363Z,11.17
2022-11-01T04:58:44.820Z,11.19
2022-11-01T05:01:17.202Z,11.19
2022-11-01T05:03:50.567Z,11.17
2022-11-01T05:06:21.059Z,11.19
2022-11-01T05:08:49.858Z,11.18
2022-11-01T05:11:18.598Z,11.17
2022-11-01T05:13:47.599Z,11.15
2022-11-01T05:16:21.009Z,11.13
2022-11-01T05:18:50.754Z,11.12
2022-11-01T05:21:21.056Z,11.10
2022-11-01T05:23:50.178Z,11.11
2022-11-01T05:26:18.985Z,11.13
2022-11-01T05:28:48.143Z,11.17
2022-11-01T05:31:20.465Z,11.18
2022-11-01T05:33:55.397Z,11.20
2022-11-01T05:36:26.001Z,11.18
2022-11-01T05:38:59.815Z,11.19
2022-11-01T05:41:28.503Z,11.19
2022-11-01T05:43:57.185Z,11.18
2022-11-01T05:46:26.207Z,11.19
2022-11-01T05:48:56.541Z,11.22
2022-11-01T05:51:27.134Z,11.23
2022-11-01T05:53:55.830Z,11.18
2022-11-01T05:56:26.925Z,11.23
2022-11-01T05:58:55.652Z,11.25
2022-11-01T06:01:25.534Z,11.26
2022-11-01T06:03:54.075Z,11.27
2022-11-01T06:06:25.809Z,11.25
2022-11-01T06:08:56.821Z,11.28
2022-11-01T06:11:27.898Z,11.26
2022-11-01T06:14:01.782Z,11.22
2022-11-01T06:16:30.699Z,11.21
2022-11-01T06:18:59.587Z,11.19
2022-11-01T06:21:30.129Z,11.20
2022-11-01T06:24:00.537Z,11.19
2022-11-01T06:26:29.180Z,11.22
2022-11-01T06:29:00.946Z,11.25
2022-11-01T06:31:30.715Z,11.28
2022-11-01T06:34:02.465Z,11.30
2022-11-01T06:36:31.203Z,11.32
2022-11-01T06:39:01.401Z,11.30
2022-11-01T06:41:37.530Z,11.30
2022-11-01T06:44:08.563Z,11.34
2022-11-01T06:46:39.842Z,11.35
2022-11-01T06:49:17.968Z,11.37
2022-11-01T06:51:51.167Z,11.39
2022-11-01T06:54:24.143Z,11.43
2022-11-01T06:56:55.545Z,11.43
2022-11-01T06:59:25.352Z,11.46
2022-11-01T07:01:54.048Z,11.50
2022-11-01T07:04:27.727Z,11.52
2022-11-01T07:06:56.769Z,11.56
2022-11-01T07:09:26.862Z,11.63
2022-11-01T07:12:00.295Z,11.63
2022-11-01T07:14:31.840Z,11.62
2022-11-01T07:17:01.002Z,11.65
2022-11-01T07:19:35.778Z,11.73
2022-11-01T07:22:04.415Z,11.78
2022-11-01T07:24:34.866Z,11.80
2022-11-01T07:27:03.795Z,11.77
2022-11-01T07:29:34.046Z,11.78
2022-11-01T07:32:02.924Z,11.79
2022-11-01T07:34:34.708Z,11.76
2022-11-01T07:37:05.841Z,11.73
2022-11-01T07:39:35.971Z,11.70
2022-11-01T07:42:08.134Z,11.71
2022-11-01T07:44:36.733Z,11.72
2022-11-01T07:47:05.482Z,11.71
2022-11-01T07:49:34.418Z,11.71
2022-11-01T07:52:10.652Z,11.73
2022-11-01T07:54:41.004Z,11.77
2022-11-01T07:57:12.622Z,11.82
2022-11-01T07:59:41.472Z,11.84
2022-11-01T08:02:10.797Z,11.87
2022-11-01T08:04:39.654Z,11.89
2022-11-01T08:07:08.606Z,11.88
2022-11-01T08:09:37.689Z,11.90
2022-11-01T08:12:11.009Z,11.90
2022-11-01T08:14:42.588Z,11.86
2022-11-01T08:17:11.807Z,11.86
2022-11-01T08:19:44.176Z,11.82
2022-11-01T08:22:12.861Z,11.80
2022-11-01T08:24:41.707Z,11.87
2022-11-01T08:27:12.311Z,11.93
2022-11-01T08:29:44.729Z,11.97
2022-11-01T08:32:16.603Z,11.99
2022-11-01T08:34:46.758Z,12.02
2022-11-01T08:37:17.206Z,12.12
2022-11-01T08:39:48.951Z,12.23
2022-11-01T08:42:29.498Z,12.31
2022-11-01T08:44:58.693Z,12.30
2022-11-01T08:47:27.835Z,12.33
2022-11-01T08:49:57.232Z,12.24
2022-11-01T08:52:25.864Z,12.15
2022-11-01T08:54:55.333Z,12.09
2022-11-01T08:57:25.845Z,12.04
2022-11-01T08:59:55.158Z,12.00
2022-11-01T09:02:24.474Z,12.04
2022-11-01T09:04:53.643Z,12.07
2022-11-01T09:07:22.822Z,12.07
2022-11-01T09:09:53.813Z,12.13
2022-11-01T09:12:24.760Z,12.20
2022-11-01T09:15:02.560Z,12.27
2022-11-01T09:17:39.835Z,12.27
2022-11-01T09:20:09.629Z,12.36
2022-11-01T09:22:39.335Z,12.41
2022-11-01T09:25:09.717Z,12.40
2022-11-01T09:27:40.923Z,12.29
2022-11-01T09:30:12.364Z,12.19
2022-11-01T09:32:43.459Z,12.15
2022-11-01T09:35:12.212Z,12.13
2022-11-01T09:37:40.965Z,12.20
2022-11-01T09:40:12.076Z,12.28
2022-11-01T09:42:45.654Z,12.29
2022-11-01T09:45:22.225Z,12.34
2022-11-01T09:48:04.123Z,12.36
2022-11-01T09:50:42.764Z,12.34
2022-11-01T09:53:35.626Z,12.26
2022-11-01T09:56:15.460Z,12.10
2022-11-01T09:59:01.908Z,12.00
2022-11-01T10:01:42.944Z,11.98
2022-11-01T10:05:03.948Z,11.97
2022-11-01T10:07:47.375Z,11.95
2022-11-01T10:10:33.930Z,11.91
2022-11-01T10:13:38.751Z,11.94
2022-11-01T10:16:19.769Z,12.04
2022-11-01T10:18:57.133Z,12.08
2022-11-01T10:21:33.918Z,12.08
2022-11-01T10:24:08.493Z,12.13
2022-11-01T10:26:44.614Z,12.24
2022-11-01T10:29:25.171Z,12.28
2022-11-01T10:31:59.356Z,12.23
2022-11-01T10:34:41.953Z,12.13
2022-11-01T10:37:22.870Z,12.16
2022-11-01T10:40:08.341Z,12.15
2022-11-01T10:42:42.231Z,12.08
2022-11-01T10:45:28.569Z,12.07
2022-11-01T10:48:08.038Z,12.13
2022-11-01T10:50:43.991Z,12.10
2022-11-01T10:53:22.604Z,12.15
2022-11-01T10:56:01.735Z,12.12
2022-11-01T10:58:42.467Z,12.16
2022-11-01T11:01:17.420Z,12.10
2022-11-01T11:03:58.261Z,12.11
2022-11-01T11:06:33.706Z,12.11
2022-11-01T11:09:06.829Z,12.18
2022-11-01T11:11:43.485Z,12.26
2022-11-01T11:14:19.570Z,12.32
2022-11-01T11:16:55.336Z,12.37
2022-11-01T11:19:36.057Z,12.41
2022-11-01T11:22:09.611Z,12.39
2022-11-01T11:24:47.971Z,12.44
2022-11-01T11:27:25.553Z,12.38
2022-11-01T11:30:10.481Z,12.22
2022-11-01T11:32:49.115Z,12.13
2022-11-01T11:35:25.528Z,12.05
2022-11-01T11:38:01.330Z,12.02
2022-11-01T11:40:45.971Z,12.07
2022-11-01T11:43:26.299Z,12.05
2022-11-01T11:46:09.119Z,12.10
2022-11-01T11:48:50.796Z,12.12
2022-11-01T11:51:20.601Z,12.11
2022-11-01T11:54:32.157Z,12.04
2022-11-01T11:57:18.672Z,12.09
2022-11-01T11:59:57.166Z,12.08
2022-11-01T12:02:34.835Z,12.04
2022-11-01T12:05:27.251Z,12.06
2022-11-01T12:07:59.485Z,12.05
2022-11-01T12:10:39.371Z,12.06
2022-11-01T12:13:27.718Z,12.09
2022-11-01T12:16:17.867Z,12.10
2022-11-01T12:19:00.037Z,12.11
2022-11-01T12:21:39.199Z,12.14
2022-11-01T12:24:32.758Z,12.19
2022-11-01T12:27:18.165Z,12.20
2022-11-01T12:29:53.283Z,12.15
2022-11-01T12:32:29.806Z,12.20
2022-11-01T12:35:05.076Z,12.25
2022-11-01T12:37:47.489Z,12.19
2022-11-01T12:40:24.768Z,12.17
2022-11-01T12:43:03.710Z,12.12
2022-11-01T12:45:38.407Z,12.12
2022-11-01T12:48:14.335Z,12.12
2022-11-01T12:50:49.628Z,12.14
2022-11-01T12:53:25.086Z,12.12
2022-11-01T12:55:58.374Z,12.14
2022-11-01T12:58:33.694Z,12.10
2022-11-01T13:01:29.349Z,12.09
2022-11-01T13:04:17.359Z,12.04
2022-11-01T13:07:04.940Z,12.03
2022-11-01T13:09:48.541Z,12.02
2022-11-01T13:12:29.588Z,12.03
2022-11-01T13:15:08.874Z,11.97
2022-11-01T13:17:47.169Z,11.93
2022-11-01T13:20:49.563Z,11.93
2022-11-01T13:23:30.488Z,11.89
2022-11-01T13:26:06.765Z,11.90
2022-11-01T13:29:04.400Z,11.91
2022-11-01T13:31:52.754Z,11.88
2022-11-01T13:34:36.847Z,11.91
2022-11-01T13:37:15.301Z,11.86
2022-11-01T13:40:06.809Z,11.88
2022-11-01T13:42:43.595Z,11.90
2022-11-01T13:45:42.406Z,11.94
2022-11-01T13:48:26.499Z,11.98
2022-11-01T13:51:19.180Z,11.99
2022-11-01T13:53:56.411Z,11.95
2022-11-01T13:56:32.326Z,11.93
2022-11-01T13:59:02.518Z,11.90
2022-11-01T14:01:36.026Z,11.88
2022-11-01T14:04:26.751Z,11.82
2022-11-01T14:07:15.671Z,11.82
2022-11-01T14:09:48.052Z,11.82
2022-11-01T14:12:36.721Z,11.82
2022-11-01T14:15:21.029Z,11.81
2022-11-01T14:18:06.187Z,11.80
2022-11-01T14:20:56.359Z,11.76
2022-11-01T14:24:00.405Z,11.75
2022-11-01T14:26:45.848Z,11.74
2022-11-01T14:29:15.540Z,11.72
2022-11-01T14:31:48.428Z,11.78
2022-11-01T14:34:30.633Z,11.73
2022-11-01T14:37:02.010Z,11.73
2022-11-01T14:39:38.261Z,11.74
2022-11-01T14:42:11.399Z,11.75
2022-11-01T14:44:50.620Z,11.76
2022-11-01T14:47:36.404Z,11.76
2022-11-01T14:50:21.904Z,11.77
2022-11-01T14:53:01.107Z,11.79
2022-11-01T14:55:36.547Z,11.79
2022-11-01T14:58:20.415Z,11.76
2022-11-01T15:00:55.066Z,11.77
2022-11-01T15:03:25.251Z,11.76
2022-11-01T15:05:55.403Z,11.77
2022-11-01T15:08:31.453Z,11.75
2022-11-01T15:11:05.132Z,11.74
2022-11-01T15:13:39.384Z,11.73
2022-11-01T15:16:17.397Z,11.73
2022-11-01T15:18:53.389Z,11.72
2022-11-01T15:21:28.873Z,11.68
2022-11-01T15:24:03.336Z,11.68
2022-11-01T15:26:34.553Z,11.67
2022-11-01T15:29:06.207Z,11.67
2022-11-01T15:31:35.964Z,11.67
2022-11-01T15:34:06.613Z,11.64
2022-11-01T15:36:38.352Z,11.61
2022-11-01T15:39:19.784Z,11.61
2022-11-01T15:41:49.779Z,11.62
2022-11-01T15:44:23.412Z,11.59
2022-11-01T15:46:56.781Z,11.65
2022-11-01T15:49:29.677Z,11.58
2022-11-01T15:52:01.856Z,11.57
2022-11-01T15:54:43.455Z,11.56
2022-11-01T15:57:16.115Z,11.60
2022-11-01T15:59:50.844Z,11.57
2022-11-01T16:02:23.846Z,11.59
2022-11-01T16:04:53.584Z,11.60
2022-11-01T16:07:23.613Z,11.60
2022-11-01T16:09:59.857Z,11.62
2022-11-01T16:12:32.498Z,11.61
2022-11-01T16:15:04.351Z,11.61
2022-11-01T16:17:35.243Z,11.60
2022-11-01T16:20:06.104Z,11.61
2022-11-01T16:22:38.535Z,11.63
2022-11-01T16:25:22.663Z,11.59
2022-11-01T16:28:05.138Z,11.63
2022-11-01T16:30:40.840Z,11.63
2022-11-01T16:33:25.280Z,11.63
2022-11-01T16:35:57.103Z,11.63
2022-11-01T16:38:48.653Z,11.59
2022-11-01T16:41:21.298Z,11.61
2022-11-01T16:43:54.004Z,11.62
2022-11-01T16:46:24.448Z,11.62
2022-11-01T16:49:03.790Z,11.60
2022-11-01T16:52:07.168Z,11.55
2022-11-01T16:55:37.253Z,11.48
2022-11-01T16:58:10.858Z,11.52
2022-11-01T17:00:41.201Z,11.54
2022-11-01T17:03:16.265Z,11.52
2022-11-01T17:05:56.253Z,11.49
2022-11-01T17:08:29.895Z,11.51
2022-11-01T17:11:03.944Z,11.48
2022-11-01T17:13:38.339Z,11.45
2022-11-01T17:16:14.071Z,11.41
2022-11-01T17:18:45.429Z,11.39
2022-11-01T17:21:14.594Z,11.36
2022-11-01T17:23:43.521Z,11.36
2022-11-01T17:26:14.622Z,11.37
2022-11-01T17:28:51.223Z,11.35
2022-11-01T17:31:21.443Z,11.35
2022-11-01T17:33:50.642Z,11.35
2022-11-01T17:36:20.801Z,11.35
2022-11-01T17:38:50.542Z,11.34
2022-11-01T17:41:20.200Z,11.36
2022-11-01T17:43:50.290Z,11.37
2022-11-01T17:46:23.293Z,11.34
2022-11-01T17:48:52.931Z,11.40
2022-11-01T17:51:23.258Z,11.39
2022-11-01T17:53:55.009Z,11.38
2022-11-01T17:56:25.625Z,11.38
2022-11-01T17:58:55.935Z,11.42
2022-11-01T18:01:25.134Z,11.36
2022-11-01T18:03:54.601Z,11.37
2022-11-01T18:06:23.323Z,11.36
2022-11-01T18:08:54.276Z,11.38
2022-11-01T18:11:38.880Z,11.36
2022-11-01T18:14:17.377Z,11.36
2022-11-01T18:16:49.851Z,11.34
2022-11-01T18:19:48.297Z,11.33
2022-11-01T18:22:29.191Z,11.33
2022-11-01T18:25:02.823Z,11.32
2022-11-01T18:27:35.983Z,11.29
2022-11-01T18:30:17.817Z,11.30
2022-11-01T18:32:52.384Z,11.28
2022-11-01T18:35:31.935Z,11.28
2022-11-01T18:38:26.421Z,11.24
2022-11-01T18:40:59.439Z,11.22
2022-11-01T18:43:32.175Z,11.21
2022-11-01T18:46:23.977Z,11.21
2022-11-01T18:49:00.275Z,11.20
2022-11-01T18:51:31.856Z,11.20
2022-11-01T18:54:17.686Z,11.19
2022-11-01T18:56:51.482Z,11.15
2022-11-01T18:59:29.641Z,11.16
2022-11-01T19:02:14.436Z,11.12
2022-11-01T19:04:46.425Z,11.12
2022-11-01T19:07:19.268Z,11.10
2022-11-01T19:09:54.597Z,11.12
2022-11-01T19:12:28.430Z,11.13
2022-11-01T19:15:01.290Z,11.11
2022-11-01T19:17:37.433Z,11.12
2022-11-01T19:20:21.350Z,11.06
2022-11-01T19:22:50.901Z,11.09
2022-11-01T19:25:24.034Z,11.08
2022-11-01T19:27:56.536Z,11.04
2022-11-01T19:30:27.261Z,11.03
2022-11-01T19:33:00.799Z,11.04
2022-11-01T19:35:29.929Z,11.04
2022-11-01T19:37:58.937Z,11.02
2022-11-01T19:40:30.059Z,11.02
2022-11-01T19:43:04.497Z,11.03
2022-11-01T19:45:34.770Z,11.03
2022-11-01T19:48:13.441Z,11.00
2022-11-01T19:50:44.017Z,11.08
2022-11-01T19:53:27.701Z,11.04
2022-11-01T19:56:00.529Z,11.04
2022-11-01T19:58:40.914Z,11.03
2022-11-01T20:01:42.031Z,11.03
2022-11-01T20:04:35.032Z,11.01
2022-11-01T20:07:14.411Z,11.02
2022-11-01T20:09:44.301Z,11.00
2022-11-01T20:12:18.602Z,11.00
2022-11-01T20:14:50.816Z,11.03
2022-11-01T20:17:20.529Z,11.03
2022-11-01T20:19:51.008Z,11.06
2022-11-01T20:22:19.815Z,11.06
2022-11-01T20:24:48.644Z,11.07
2022-11-01T20:27:18.540Z,11.07
2022-11-01T20:29:47.226Z,11.10
2022-11-01T20:32:16.599Z,11.09
2022-11-01T20:34:47.686Z,11.10
2022-11-01T20:37:33.332Z,11.13
2022-11-01T20:40:03.748Z,11.14
2022-11-01T20:42:33.494Z,11.15
2022-11-01T20:45:02.307Z,11.16
2022-11-01T20:47:31.075Z,11.15
2022-11-01T20:50:03.943Z,11.16
2022-11-01T20:52:39.681Z,11.18
2022-11-01T20:55:11.096Z,11.19
2022-11-01T20:57:40.629Z,11.20
2022-11-01T21:00:13.462Z,11.19
2022-11-01T21:02:43.462Z,11.18
2022-11-01T21:05:22.414Z,11.17
2022-11-01T21:07:56.063Z,11.17
2022-11-01T21:10:31.761Z,11.15
2022-11-01T21:13:03.018Z,11.15
2022-11-01T21:15:37.847Z,11.13
2022-11-01T21:18:35.365Z,11.14
2022-11-01T21:21:32.518Z,11.11
2022-11-01T21:24:22.447Z,11.10
2022-11-01T21:26:55.819Z,11.12
2022-11-01T21:29:28.666Z,11.12
2022-11-01T21:31:58.482Z,11.11
2022-11-01T21:34:30.328Z,11.15
2022-11-01T21:36:59.794Z,11.14
2022-11-01T21:39:33.785Z,11.13
2022-11-01T21:42:06.196Z,11.13
2022-11-01T21:44:40.335Z,11.12
2022-11-01T21:47:19.191Z,11.06
2022-11-01T21:49:48.726Z,11.08
2022-11-01T21:52:19.412Z,11.02
2022-11-01T21:54:49.996Z,11.00
2022-11-01T21:57:19.562Z,11.00
2022-11-01T21:59:49.711Z,11.04
2022-11-01T22:02:18.871Z,11.03
2022-11-01T22:04:49.801Z,11.03
2022-11-01T22:07:21.457Z,11.02
2022-11-01T22:09:51.964Z,11.04
2022-11-01T22:12:24.193Z,11.04
2022-11-01T22:14:52.921Z,11.04
2022-11-01T22:17:21.590Z,11.03
2022-11-01T22:19:50.513Z,11.06
2022-11-01T22:22:20.658Z,11.08
2022-11-01T22:24:50.937Z,11.06
2022-11-01T22:27:20.145Z,11.04
2022-11-01T22:29:53.801Z,11.04
2022-11-01T22:32:23.737Z,11.08
2022-11-01T22:34:53.742Z,11.14
2022-11-01T22:37:22.644Z,11.10
2022-11-01T22:39:53.983Z,11.08
2022-11-01T22:42:23.342Z,11.14
2022-11-01T22:44:52.722Z,11.12
2022-11-01T22:47:26.400Z,11.10
2022-11-01T22:49:57.675Z,11.11
2022-11-01T22:52:33.155Z,11.12
2022-11-01T22:55:07.497Z,11.13
2022-11-01T22:57:44.664Z,11.14
2022-11-01T23:00:32.496Z,11.14
2022-11-01T23:03:12.404Z,11.15
2022-11-01T23:05:43.482Z,11.19
2022-11-01T23:08:22.289Z,11.18
2022-11-01T23:10:53.820Z,11.17
2022-11-01T23:13:43.239Z,11.14
2022-11-01T23:16:26.163Z,11.14
2022-11-01T23:18:58.612Z,11.15
2022-11-01T23:21:29.085Z,11.16
2022-11-01T23:23:57.855Z,11.16
2022-11-01T23:26:31.016Z,11.10
2022-11-01T23:29:02.436Z,11.09
2022-11-01T23:31:31.571Z,11.11
2022-11-01T23:34:02.598Z,11.10
2022-11-01T23:36:36.034Z,11.12
2022-11-01T23:39:09.240Z,11.13
2022-11-01T23:41:41.355Z,11.13
2022-11-01T23:44:14.909Z,11.15
2022-11-01T23:46:44.405Z,11.13
2022-11-01T23:49:18.275Z,11.16
2022-11-01T23:51:49.982Z,11.20
2022-11-01T23:54:25.445Z,11.23
2022-11-01T23:56:56.978Z,11.23
2022-11-01T23:59:25.719Z,11.28
